Latest Coastal Weather Observations for Derby

IDW60701

Issued at 8:53 pm WST Friday 21 July 2017 (issued every 10 minutes, with the page automatically refreshed every 10 minutes)

About coastal observations | Map of coastal stations | Coastal observations for WA | Marine services | Other Formats
Station Details ID: 003032 Name: DERBY AERO Lat: -17.37 Lon: 123.66 Height: 6.2 m
Data from the previous 72 hours. | See also: Recent months at Derby
Date/Time
WST
Temp
°C
Wind Pressure Rain since
9am
mm
Weather Cloud Vis
km
Sea
Height
m
Swell
Dir  Spd
kts
Gust
kts
hPa Trend Height
m
Period
s
Dir
21/08:30pm 21.7 NNW 3 4 1016.3 - 0.0 - - 10 - - - -
21/08:00pm 21.9 NNW 4 5 1016.0 - 0.0 - - 10 - - - -
21/07:30pm 21.8 NW 5 6 1015.9 - 0.0 - - 10 - - - -
21/07:00pm 23.9 NNW 7 9 1015.4 - 0.0 - - 10 - - - -
21/06:30pm 24.4 NNW 7 10 1015.1 - 0.0 - - 10 - - - -
21/06:00pm 25.0 N 7 9 1014.7 - 0.0 - - 10 - - - -
21/05:30pm 26.0 N 9 11 1014.4 - 0.0 - - 10 - - - -
21/05:00pm 27.5 NNW 9 13 1014.3 - 0.0 - - 10 - - - -
21/04:30pm 28.6 NNW 11 14 1014.0 - 0.0 - - 10 - - - -
21/04:00pm 29.0 NNW 12 15 1013.8 - 0.0 - - 10 - - - -
21/03:30pm 29.3 NNW 12 15 1013.6 - 0.0 - - 10 - - - -
21/03:00pm 29.8 NNW 11 13 1013.5 - 0.0 - - 10 - - - -
21/02:30pm 29.9 NW 11 12 1013.2 - 0.0 - - 10 - - - -
21/02:00pm 29.8 NNW 11 15 1013.3 - 0.0 - - 10 - - - -
21/01:30pm 29.5 NNW 11 13 1013.5 - 0.0 - - 10 - - - -
21/01:00pm 29.7 NNW 10 13 1013.8 - 0.0 - - 10 - - - -
21/12:30pm 29.3 NW 10 12 1014.2 - 0.0 - - 10 - - - -
21/12:00pm 28.7 NW 11 13 1014.5 - 0.0 - - 10 - - - -
21/11:30am 29.2 NW 7 10 1014.8 - 0.0 - - 10 - - - -
21/11:00am 28.9 NNE 5 8 1015.2 - 0.0 - - 10 - - - -
21/10:30am 27.9 N 5 9 1015.6 - 0.0 - - 10 - - - -
21/10:00am 27.7 NNE 3 5 1015.7 - 0.0 - - 10 - - - -
21/09:30am 25.7 NNE 3 5 1015.9 - 0.0 - - 10 - - - -
21/09:00am 24.3 NE 5 7 1016.0 - 0.0 - - 10 - - - -
21/08:30am 23.0 ENE 4 6 1015.9 - 0.0 - - 10 - - - -
21/08:00am 20.6 NE 4 5 1015.5 - 0.0 - - 10 - - - -
21/07:30am 18.3 NNE 3 5 1015.3 - 0.0 - - 10 - - - -
21/07:00am 15.3 NE 3 3 1015.0 - 0.0 - - 10 - - - -
21/06:30am 14.3 ENE 4 6 1014.7 - 0.0 - - 10 - - - -
21/06:00am 13.6 SSW 3 4 1014.2 - 0.0 - - 10 - - - -
21/05:30am 13.6 S 4 4 1013.8 - 0.0 - - 10 - - - -
21/05:00am 13.5 SSW 1 4 1013.5 - 0.0 - - 10 - - - -
21/04:30am 13.4 S 2 4 1013.3 - 0.0 - - 10 - - - -
21/04:00am 13.8 CALM 0 0 1013.2 - 0.0 - - 10 - - - -
21/03:30am 15.0 SSE 3 4 1013.2 - 0.0 - - 10 - - - -
21/03:18am 14.4 SE 3 4 1013.2 - 0.0 - - 10 - - - -
21/03:01am 15.6 SE 3 4 1013.3 - 0.0 - - 5 - - - -
21/03:00am 15.6 SE 3 4 1013.3 - 0.0 - - 6 - - - -
21/02:30am 15.1 SE 3 4 1013.3 - 0.0 - - 10 - - - -
21/02:00am 15.2 SE 2 4 1013.4 - 0.0 - - 10 - - - -
21/01:30am 15.4 SE 3 3 1013.7 - 0.0 - - 10 - - - -
21/01:00am 15.8 CALM 0 0 1013.9 - 0.0 - - 10 - - - -
21/12:30am 16.2 NE 4 5 1014.2 - 0.0 - - 10 - - - -
21/12:00am 16.4 ENE 5 6 1014.3 - 0.0 - - 10 - - - -
 
Date/Time
WST
Temp
°C
Wind Pressure Rain since
9am
mm
Weather Cloud Vis
km
Sea
Height
m
Swell
Dir  Spd
kts
Gust
kts
hPa Trend Height
m
Period
s
Dir
20/11:30pm 16.8 NNE 3 4 1014.2 - 0.0 - - 10 - - - -
20/11:00pm 19.3 N 4 5 1014.2 - 0.0 - - 10 - - - -
20/10:30pm 18.9 NW 3 4 1014.2 - 0.0 - - 10 - - - -
20/10:00pm 18.4 NNW 3 4 1014.2 - 0.0 - - 10 - - - -
20/09:30pm 18.2 N 4 5 1014.2 - 0.0 - - 10 - - - -
20/09:00pm 17.3 CALM 0 0 1013.9 - 0.0 - - 9 - - - -
20/08:30pm 18.6 CALM 0 0 1013.5 - 0.0 - - 10 - - - -
20/08:00pm 19.6 CALM 0 0 1013.2 - 0.0 - - 10 - - - -
20/07:30pm 20.3 CALM 0 0 1013.0 - 0.0 - - 10 - - - -
20/07:00pm 20.8 CALM 0 0 1012.7 - 0.0 - - 10 - - - -
20/06:30pm 22.4 NW 1 2 1012.4 - 0.0 - - 10 - - - -
20/06:00pm 23.3 NW 4 4 1012.1 - 0.0 - - 10 - - - -
20/05:30pm 24.9 WNW 6 9 1011.8 - 0.0 - - 10 - - - -
20/05:00pm 27.6 NNW 8 10 1011.5 - 0.0 - - 10 - - - -
20/04:30pm 29.3 NW 9 11 1011.3 - 0.0 - - 10 - - - -
20/04:00pm 31.1 NNW 9 11 1011.1 - 0.0 - - 10 - - - -
20/03:30pm 32.1 NW 9 11 1010.9 - 0.0 - - 10 - - - -
20/03:00pm 32.4 NW 9 11 1010.9 - 0.0 - - 10 - - - -
20/02:30pm 32.7 NW 7 11 1010.8 - 0.0 - - 10 - - - -
20/02:00pm 32.8 NW 7 9 1011.1 - 0.0 - - 10 - - - -
20/01:30pm 33.1 WNW 7 10 1011.6 - 0.0 - - 10 - - - -
20/01:00pm 33.7 WNW 7 12 1012.0 - 0.0 - - 10 - - - -
20/12:30pm 32.5 ESE 4 8 1012.6 - 0.0 - - 10 - - - -
20/12:00pm 31.8 SSW 3 7 1013.1 - 0.0 - - 10 - - - -
20/11:30am 31.0 E 5 9 1013.7 - 0.0 - - 10 - - - -
20/11:00am 31.0 ESE 6 9 1014.0 - 0.0 - - 10 - - - -
20/10:30am 30.3 ESE 7 10 1014.5 - 0.0 - - 10 - - - -
20/10:00am 28.7 E 3 6 1014.8 - 0.0 - - 10 - - - -
20/09:30am 26.4 SSE 6 8 1015.2 - 0.0 - - 10 - - - -
20/09:00am 25.1 S 5 7 1015.1 - 0.0 - - 10 - - - -
20/08:30am 22.5 S 5 6 1015.1 - 0.0 - - 10 - - - -
20/08:00am 20.6 SE 5 6 1014.8 - 0.0 - - 10 - - - -
20/07:30am 18.3 SSE 5 7 1014.6 - 0.0 - - 10 - - - -
20/07:00am 15.8 SE 5 6 1014.4 - 0.0 - - 10 - - - -
20/06:30am 14.2 SE 6 7 1014.2 - 0.0 - - 10 - - - -
20/06:00am 13.4 SE 5 6 1013.9 - 0.0 - - 10 - - - -
20/05:30am 14.6 SSE 7 8 1013.6 - 0.0 - - 10 - - - -
20/05:00am 14.3 SSE 5 7 1013.5 - 0.0 - - 10 - - - -
20/04:30am 14.1 SE 5 6 1013.2 - 0.0 - - 10 - - - -
20/04:00am 13.9 SSE 5 7 1013.0 - 0.0 - - 10 - - - -
20/03:30am 13.9 SSE 6 7 1013.2 - 0.0 - - 10 - - - -
20/03:00am 13.5 S 6 7 1013.3 - 0.0 - - 10 - - - -
20/02:30am 13.6 SSE 5 6 1013.4 - 0.0 - - 10 - - - -
20/02:00am 13.9 SE 3 4 1013.7 - 0.0 - - 10 - - - -
20/01:30am 15.3 SSE 4 5 1013.8 - 0.0 - - 10 - - - -
20/01:00am 14.0 SSE 5 6 1014.0 - 0.0 - - 10 - - - -
20/12:30am 15.2 SE 3 4 1014.2 - 0.0 - - 10 - - - -
20/12:00am 14.1 SE 3 4 1014.4 - 0.0 - - 10 - - - -
 
Date/Time
WST
Temp
°C
Wind Pressure Rain since
9am
mm
Weather Cloud Vis
km
Sea
Height
m
Swell
Dir  Spd
kts
Gust
kts
hPa Trend Height
m
Period
s
Dir
19/11:30pm 14.9 CALM 0 0 1014.5 - 0.0 - - 10 - - - -
19/11:00pm 15.5 CALM 0 0 1014.7 - 0.0 - - 10 - - - -
19/10:30pm 16.7 WNW 3 4 1014.6 - 0.0 - - 10 - - - -
19/10:00pm 18.2 N 1 3 1014.8 - 0.0 - - 10 - - - -
19/09:30pm 18.6 NNW 5 7 1014.8 - 0.0 - - 10 - - - -
19/09:00pm 18.6 S 6 7 1014.6 - 0.0 - - 10 - - - -
19/08:30pm 18.6 SSE 5 6 1014.6 - 0.0 - - 10 - - - -
19/08:00pm 19.0 S 3 4 1014.5 - 0.0 - - 10 - - - -
19/07:30pm 20.0 CALM 0 0 1014.2 - 0.0 - - 10 - - - -
19/07:00pm 21.1 NW 1 4 1013.9 - 0.0 - - 10 - - - -
19/06:30pm 23.8 NW 3 3 1013.6 - 0.0 - - 10 - - - -
19/06:00pm 24.8 NNW 4 5 1013.3 - 0.0 - - 10 - - - -
19/05:30pm 26.0 NW 5 6 1013.0 - 0.0 - - 10 - - - -
19/05:00pm 28.4 NW 7 10 1012.7 - 0.0 - - 10 - - - -
19/04:30pm 30.1 NW 10 11 1012.4 - 0.0 - - 10 - - - -
19/04:00pm 30.6 WNW 11 13 1012.3 - 0.0 - - 10 - - - -
19/03:30pm 31.5 NW 10 12 1012.2 - 0.0 - - 10 - - - -
19/03:00pm 32.0 WNW 8 13 1012.2 - 0.0 - - 10 - - - -
19/02:30pm 33.4 SE 6 10 1012.2 - 0.0 - - 10 - - - -
19/02:00pm 33.3 WNW 4 7 1012.4 - 0.0 - - 10 - - - -
19/01:30pm 32.3 SE 7 11 1012.9 - 0.0 - - 10 - - - -
19/01:00pm 32.2 E 7 13 1013.5 - 0.0 - - 10 - - - -
19/12:30pm 31.8 ESE 8 11 1014.1 - 0.0 - - 10 - - - -
19/12:00pm 31.6 ESE 6 11 1014.7 - 0.0 - - 10 - - - -
19/11:30am 31.0 ESE 8 12 1015.3 - 0.0 - - 10 - - - -
19/11:00am 30.0 SE 6 9 1015.7 - 0.0 - - 10 - - - -
19/10:30am 29.3 ESE 6 11 1016.1 - 0.0 - - 10 - - - -
19/10:00am 28.2 E 8 11 1016.6 - 0.0 - - 10 - - - -
19/09:30am 26.8 ESE 11 14 1016.8 - 0.0 - - 10 - - - -
19/09:00am 25.6 ESE 11 15 1017.0 - - - - 10 - - - -
19/08:30am 24.9 ESE 9 15 1017.1 - - - - 10 - - - -
19/08:00am 23.7 ESE 7 10 1016.8 - - - - 10 - - - -
19/07:30am 21.6 SSE 9 14 1016.4 - - - - 10 - - - -
19/07:00am 18.0 S 7 9 1016.1 - - - - 10 - - - -
19/06:30am 15.8 SSE 8 9 1015.8 - - - - 10 - - - -
19/06:00am 15.3 SSE 6 7 1015.5 - - - - 10 - - - -
19/05:30am 15.6 SSE 7 8 1015.1 - - - - 10 - - - -
19/05:00am 15.9 SSE 8 10 1015.1 - - - - 10 - - - -
19/04:30am 15.3 SSE 7 8 1015.0 - - - - 10 - - - -
19/04:00am 14.0 S 6 7 1015.3 - - - - 10 - - - -
19/03:30am 14.7 S 7 8 1015.3 - - - - 10 - - - -
19/03:00am 15.3 SSE 7 8 1015.4 - 0.0 - - 10 - - - -
19/02:30am 17.3 SE 5 7 1015.5 - - - - 10 - - - -
19/02:00am 16.5 SE 4 6 1015.7 - - - - 10 - - - -
19/01:30am 16.4 SE 5 6 1015.9 - - - - 10 - - - -
19/01:00am 16.9 SSE 5 6 1016.1 - - - - 10 - - - -
19/12:30am 17.9 SSE 7 8 1016.1 - - - - 10 - - - -
19/12:00am 18.2 SSE 7 8 1016.3 - - - - 10 - - - -
 
Date/Time
WST
Temp
°C
Wind Pressure Rain since
9am
mm
Weather Cloud Vis
km
Sea
Height
m
Swell
Dir  Spd
kts
Gust
kts
hPa Trend Height
m
Period
s
Dir
18/11:30pm 18.5 SSE 7 9 1016.2 - - - - 10 - - - -
18/11:00pm 20.9 SE 7 9 1016.3 - - - - 10 - - - -
18/10:30pm 20.9 ESE 6 7 1016.5 - - - - 10 - - - -
18/10:00pm 21.2 ESE 6 8 1016.5 - - - - 10 - - - -
18/09:30pm 22.4 SE 7 8 1016.5 - - - - 10 - - - -
18/09:00pm 21.1 SE 6 7 1016.2 - 0.0 - - 10 - - - -

Other Formats:

Comma delimited format used in spreadsheet applications
http://www.bom.gov.au/fwo/IDW60701/IDW60701.95205.axf

JavaScript Object Notation format (JSON) in row-major order
http://www.bom.gov.au/fwo/IDW60701/IDW60701.95205.json